METAR de aeropuertos de Murcia y cercanos

 

LEMI - Murcia/Corvera
Actualización: 27/09/2022 09:00
Despejado
Despejado
 Viento del O
Viento: O 7 km/h
Temperatura: 19°C
Rocío: 9°C
Humedad: 52%
Barómetro: 1015 hPa
Resumen: Despejado
Visibilidad: greater than 10 km
2022/09/27 07:00 LEMI 270700Z 26004KT 210V300 CAVOK 19/09 Q1015
LERI - Murcia/Alcantarilla
Actualización: 27/09/2022 09:00
Despejado
Despejado
 Viento del varies
Viento: varies 4 km/h
Temperatura: 16°C
Rocío: 15°C
Humedad: 94%
Barómetro: 1015 hPa
Resumen: Despejado
Visibilidad: greater than 10 km
2022/09/27 07:00 LERI 270700Z VRB02KT CAVOK 16/15 Q1015 NOSIG
LELC - Murcia/San Javier
Actualización: 27/09/2022 09:00
Despejado
Despejado
 Viento del O
Viento: O 6 km/h
Temperatura: 19°C
Rocío: 14°C
Humedad: 73%
Barómetro: 1014 hPa
Resumen: Despejado
Visibilidad: greater than 10 km
2022/09/27 07:00 LELC 270700Z 27003KT 240V330 CAVOK 19/14 Q1014 NOSIG
 
LEAL - Alicante
Actualización: 27/09/2022 09:00
Despejado
Despejado
 Viento del O
Viento: O 20 km/h
Temperatura: 18°C
Rocío: 11°C
Humedad: 64%
Barómetro: 1014 hPa
Resumen: Despejado
Visibilidad: greater than 10 km
2022/09/27 07:00 LEAL 270700Z 28011KT CAVOK 18/11 Q1014 NOSIG
LEAB - Albacete
Actualización: 27/09/2022 09:00
Despejado
Despejado
 Viento del calm
Viento: Calma
Temperatura: 10°C
Rocío: 9°C
Humedad: 94%
Barómetro: 1018 hPa
Resumen: Despejado
Visibilidad: greater than 10 km
2022/09/27 07:00 LEAB 270700Z 00000KT CAVOK 10/09 Q1018 NOSIG
LEAM - Almería
Actualización: 27/09/2022 09:00
Despejado
Despejado
 Viento del varies
Viento: varies 2 km/h
Temperatura: 19°C
Rocío: 8°C
Humedad: 49%
Barómetro: 1015 hPa
Resumen: Despejado
Visibilidad: greater than 10 km
2022/09/27 07:00 LEAM 270700Z VRB01KT CAVOK 19/08 Q1015

La estación de MeteoMurcia.com, publica sus datos en los siguientes proyectos:

Weather Underground PWS IMURCIAP2 Meteoclimatic www.awekas.at

Web Analytics

Clicky